sensor_id;sensor_type;location;lat;lon;timestamp;pressure;altitude;pressure_sealevel;temperature;humidity
28289;BME280;15558;50.874;6.964;2022-09-23T00:01:09;101467.59;;;16.51;53.54
28289;BME280;15558;50.874;6.964;2022-09-23T00:03:38;101464.88;;;16.47;53.92
28289;BME280;15558;50.874;6.964;2022-09-23T00:06:11;101468.69;;;16.42;54.13
28289;BME280;15558;50.874;6.964;2022-09-23T00:08:37;101463.41;;;16.49;54.04
28289;BME280;15558;50.874;6.964;2022-09-23T00:11:12;101457.88;;;16.44;54.02
28289;BME280;15558;50.874;6.964;2022-09-23T00:13:40;101452.34;;;16.39;54.41
28289;BME280;15558;50.874;6.964;2022-09-23T00:16:10;101455.03;;;16.44;54.21
28289;BME280;15558;50.874;6.964;2022-09-23T00:18:36;101455.25;;;16.34;54.35
28289;BME280;15558;50.874;6.964;2022-09-23T00:21:07;101453.91;;;16.32;54.49
28289;BME280;15558;50.874;6.964;2022-09-23T00:23:35;101445.31;;;16.37;54.49
28289;BME280;15558;50.874;6.964;2022-09-23T00:26:04;101440.53;;;16.46;53.97
28289;BME280;15558;50.874;6.964;2022-09-23T00:28:30;101443.81;;;16.39;54.48
28289;BME280;15558;50.874;6.964;2022-09-23T00:31:04;101442.78;;;16.35;54.60
28289;BME280;15558;50.874;6.964;2022-09-23T00:33:30;101446.47;;;16.36;54.45
28289;BME280;15558;50.874;6.964;2022-09-23T00:36:00;101446.06;;;16.29;54.47
28289;BME280;15558;50.874;6.964;2022-09-23T00:38:27;101442.81;;;16.22;54.46
28289;BME280;15558;50.874;6.964;2022-09-23T00:40:53;101433.97;;;16.37;54.14
28289;BME280;15558;50.874;6.964;2022-09-23T00:43:19;101437.56;;;16.29;54.41
28289;BME280;15558;50.874;6.964;2022-09-23T00:45:47;101436.22;;;16.26;54.70
28289;BME280;15558;50.874;6.964;2022-09-23T00:48:16;101436.75;;;16.28;54.86
28289;BME280;15558;50.874;6.964;2022-09-23T00:50:48;101438.78;;;16.36;53.99
28289;BME280;15558;50.874;6.964;2022-09-23T00:53:19;101434.84;;;16.24;54.51
28289;BME280;15558;50.874;6.964;2022-09-23T00:55:53;101432.22;;;16.27;54.62
28289;BME280;15558;50.874;6.964;2022-09-23T00:58:25;101433.19;;;16.23;54.49
28289;BME280;15558;50.874;6.964;2022-09-23T01:00:53;101429.41;;;16.14;54.75
28289;BME280;15558;50.874;6.964;2022-09-23T01:03:19;101425.13;;;16.16;54.26
28289;BME280;15558;50.874;6.964;2022-09-23T01:05:47;101427.13;;;16.16;54.39
28289;BME280;15558;50.874;6.964;2022-09-23T01:08:14;101429.53;;;16.22;54.48
28289;BME280;15558;50.874;6.964;2022-09-23T01:11:02;101426.06;;;16.12;54.85
28289;BME280;15558;50.874;6.964;2022-09-23T01:16:28;101420.50;;;16.07;54.88
28289;BME280;15558;50.874;6.964;2022-09-23T01:21:56;101414.09;;;16.15;54.46
28289;BME280;15558;50.874;6.964;2022-09-23T01:24:46;101414.53;;;16.09;54.45
28289;BME280;15558;50.874;6.964;2022-09-23T01:38:46;101409.00;;;15.90;55.65
28289;BME280;15558;50.874;6.964;2022-09-23T01:44:10;101400.34;;;15.87;55.27
28289;BME280;15558;50.874;6.964;2022-09-23T01:46:47;101406.50;;;15.89;55.37
28289;BME280;15558;50.874;6.964;2022-09-23T01:49:22;101405.28;;;15.81;55.51
28289;BME280;15558;50.874;6.964;2022-09-23T01:51:56;101408.22;;;15.77;56.04
28289;BME280;15558;50.874;6.964;2022-09-23T01:54:29;101403.91;;;15.79;55.41
28289;BME280;15558;50.874;6.964;2022-09-23T01:57:04;101407.19;;;15.73;55.65
28289;BME280;15558;50.874;6.964;2022-09-23T01:59:39;101404.66;;;15.71;55.70
28289;BME280;15558;50.874;6.964;2022-09-23T02:02:11;101402.97;;;15.70;56.19
28289;BME280;15558;50.874;6.964;2022-09-23T02:04:59;101409.06;;;15.64;55.94
28289;BME280;15558;50.874;6.964;2022-09-23T02:07:47;101409.50;;;15.71;55.56
28289;BME280;15558;50.874;6.964;2022-09-23T02:10:19;101407.28;;;15.68;55.75
28289;BME280;15558;50.874;6.964;2022-09-23T02:12:51;101416.94;;;15.67;55.89
28289;BME280;15558;50.874;6.964;2022-09-23T02:15:22;101403.84;;;15.71;55.53
28289;BME280;15558;50.874;6.964;2022-09-23T02:20:28;101398.91;;;15.63;55.84
28289;BME280;15558;50.874;6.964;2022-09-23T02:23:02;101395.03;;;15.59;56.29
28289;BME280;15558;50.874;6.964;2022-09-23T02:25:38;101395.25;;;15.62;55.83
28289;BME280;15558;50.874;6.964;2022-09-23T02:28:13;101400.56;;;15.64;55.68
28289;BME280;15558;50.874;6.964;2022-09-23T02:30:49;101387.38;;;15.59;55.48
28289;BME280;15558;50.874;6.964;2022-09-23T02:33:36;101389.81;;;15.52;56.32
28289;BME280;15558;50.874;6.964;2022-09-23T02:36:25;101388.66;;;15.53;55.68
28289;BME280;15558;50.874;6.964;2022-09-23T02:38:58;101402.50;;;15.42;56.26
28289;BME280;15558;50.874;6.964;2022-09-23T02:41:50;101387.50;;;15.41;56.62
28289;BME280;15558;50.874;6.964;2022-09-23T02:44:21;101381.75;;;15.33;56.86
28289;BME280;15558;50.874;6.964;2022-09-23T02:46:48;101386.28;;;15.34;56.33
28289;BME280;15558;50.874;6.964;2022-09-23T02:49:25;101380.19;;;15.40;56.20
28289;BME280;15558;50.874;6.964;2022-09-23T02:51:52;101380.31;;;15.35;56.93
28289;BME280;15558;50.874;6.964;2022-09-23T02:54:21;101379.25;;;15.31;56.63
28289;BME280;15558;50.874;6.964;2022-09-23T02:56:48;101378.22;;;15.27;57.13
28289;BME280;15558;50.874;6.964;2022-09-23T02:59:16;101365.66;;;15.33;56.63
28289;BME280;15558;50.874;6.964;2022-09-23T03:10:39;101351.50;;;15.33;56.44
28289;BME280;15558;50.874;6.964;2022-09-23T03:18:39;101351.91;;;15.27;56.80
28289;BME280;15558;50.874;6.964;2022-09-23T03:21:25;101358.41;;;15.27;56.66
28289;BME280;15558;50.874;6.964;2022-09-23T03:23:54;101365.94;;;15.18;56.67
28289;BME280;15558;50.874;6.964;2022-09-23T03:26:29;101359.16;;;15.19;57.06
28289;BME280;15558;50.874;6.964;2022-09-23T03:28:57;101356.09;;;15.16;56.70
28289;BME280;15558;50.874;6.964;2022-09-23T03:31:26;101355.56;;;15.14;56.80
28289;BME280;15558;50.874;6.964;2022-09-23T03:33:57;101349.41;;;15.12;57.25
28289;BME280;15558;50.874;6.964;2022-09-23T03:36:40;101346.66;;;15.20;56.89
28289;BME280;15558;50.874;6.964;2022-09-23T03:39:25;101347.53;;;15.21;56.91
28289;BME280;15558;50.874;6.964;2022-09-23T03:41:55;101354.09;;;15.16;56.95
28289;BME280;15558;50.874;6.964;2022-09-23T03:44:22;101346.66;;;15.07;57.45
28289;BME280;15558;50.874;6.964;2022-09-23T03:46:48;101345.19;;;15.09;57.56
28289;BME280;15558;50.874;6.964;2022-09-23T03:49:25;101344.97;;;15.06;57.77
28289;BME280;15558;50.874;6.964;2022-09-23T03:51:53;101340.25;;;15.02;57.94
28289;BME280;15558;50.874;6.964;2022-09-23T03:54:19;101334.84;;;14.92;58.32
28289;BME280;15558;50.874;6.964;2022-09-23T03:56:46;101337.66;;;14.92;58.24
28289;BME280;15558;50.874;6.964;2022-09-23T03:59:13;101327.59;;;14.86;58.05
28289;BME280;15558;50.874;6.964;2022-09-23T04:01:42;101336.09;;;14.86;58.24
28289;BME280;15558;50.874;6.964;2022-09-23T04:04:09;101352.28;;;14.80;58.73
28289;BME280;15558;50.874;6.964;2022-09-23T04:06:35;101350.31;;;14.81;58.57
28289;BME280;15558;50.874;6.964;2022-09-23T04:09:01;101347.06;;;14.74;58.42
28289;BME280;15558;50.874;6.964;2022-09-23T04:11:27;101342.66;;;14.68;58.67
28289;BME280;15558;50.874;6.964;2022-09-23T04:13:54;101347.69;;;14.71;58.84
28289;BME280;15558;50.874;6.964;2022-09-23T04:16:21;101337.00;;;14.68;58.61
28289;BME280;15558;50.874;6.964;2022-09-23T04:18:47;101338.88;;;14.59;58.71
28289;BME280;15558;50.874;6.964;2022-09-23T04:21:14;101334.34;;;14.58;58.46
28289;BME280;15558;50.874;6.964;2022-09-23T04:23:40;101334.28;;;14.63;58.36
28289;BME280;15558;50.874;6.964;2022-09-23T04:26:06;101341.81;;;14.68;58.39
28289;BME280;15558;50.874;6.964;2022-09-23T04:28:33;101338.78;;;14.64;58.55
28289;BME280;15558;50.874;6.964;2022-09-23T04:31:02;101325.28;;;14.61;58.27
28289;BME280;15558;50.874;6.964;2022-09-23T04:33:28;101319.75;;;14.70;58.10
28289;BME280;15558;50.874;6.964;2022-09-23T04:35:55;101317.63;;;14.62;58.27
28289;BME280;15558;50.874;6.964;2022-09-23T04:38:20;101319.63;;;14.61;58.36
28289;BME280;15558;50.874;6.964;2022-09-23T04:40:47;101317.75;;;14.57;58.52
28289;BME280;15558;50.874;6.964;2022-09-23T04:43:14;101317.41;;;14.58;58.17
28289;BME280;15558;50.874;6.964;2022-09-23T04:45:44;101308.41;;;14.56;58.24
28289;BME280;15558;50.874;6.964;2022-09-23T04:48:10;101303.28;;;14.58;58.19
28289;BME280;15558;50.874;6.964;2022-09-23T04:50:38;101311.34;;;14.51;58.89
28289;BME280;15558;50.874;6.964;2022-09-23T04:53:05;101312.16;;;14.52;58.19
28289;BME280;15558;50.874;6.964;2022-09-23T04:55:31;101313.09;;;14.47;58.61
28289;BME280;15558;50.874;6.964;2022-09-23T04:57:57;101306.63;;;14.47;58.54
28289;BME280;15558;50.874;6.964;2022-09-23T05:00:23;101308.09;;;14.44;58.19
28289;BME280;15558;50.874;6.964;2022-09-23T05:02:49;101307.47;;;14.47;58.42
28289;BME280;15558;50.874;6.964;2022-09-23T05:05:16;101310.06;;;14.44;58.78
28289;BME280;15558;50.874;6.964;2022-09-23T05:08:18;101306.00;;;14.37;58.85
28289;BME280;15558;50.874;6.964;2022-09-23T05:10:43;101307.34;;;14.39;58.80
28289;BME280;15558;50.874;6.964;2022-09-23T05:13:10;101311.94;;;14.35;58.98
28289;BME280;15558;50.874;6.964;2022-09-23T05:15:36;101308.81;;;14.37;58.50
28289;BME280;15558;50.874;6.964;2022-09-23T05:18:02;101313.22;;;14.42;58.08
28289;BME280;15558;50.874;6.964;2022-09-23T05:20:28;101307.66;;;14.38;58.89
28289;BME280;15558;50.874;6.964;2022-09-23T05:22:54;101308.06;;;14.31;59.02
28289;BME280;15558;50.874;6.964;2022-09-23T05:25:21;101306.81;;;14.37;58.99
28289;BME280;15558;50.874;6.964;2022-09-23T05:27:49;101302.53;;;14.39;58.97
28289;BME280;15558;50.874;6.964;2022-09-23T05:30:15;101305.03;;;14.41;58.19
28289;BME280;15558;50.874;6.964;2022-09-23T05:32:41;101296.88;;;14.39;58.04
28289;BME280;15558;50.874;6.964;2022-09-23T05:35:07;101298.44;;;14.32;58.85
28289;BME280;15558;50.874;6.964;2022-09-23T05:37:33;101301.56;;;14.31;59.21
28289;BME280;15558;50.874;6.964;2022-09-23T05:39:59;101301.03;;;14.29;59.18
28289;BME280;15558;50.874;6.964;2022-09-23T05:42:25;101311.72;;;14.32;59.23
28289;BME280;15558;50.874;6.964;2022-09-23T05:44:52;101298.03;;;14.38;58.54
28289;BME280;15558;50.874;6.964;2022-09-23T05:47:19;101304.63;;;14.34;59.23
28289;BME280;15558;50.874;6.964;2022-09-23T05:49:44;101313.53;;;14.41;58.50
28289;BME280;15558;50.874;6.964;2022-09-23T05:52:11;101311.00;;;14.39;58.69
28289;BME280;15558;50.874;6.964;2022-09-23T05:54:37;101311.00;;;14.39;59.26
28289;BME280;15558;50.874;6.964;2022-09-23T05:57:03;101317.81;;;14.38;59.08
28289;BME280;15558;50.874;6.964;2022-09-23T05:59:30;101319.47;;;14.39;58.83
28289;BME280;15558;50.874;6.964;2022-09-23T06:05:06;101319.28;;;14.36;59.13
28289;BME280;15558;50.874;6.964;2022-09-23T06:07:32;101320.94;;;14.37;59.65
28289;BME280;15558;50.874;6.964;2022-09-23T06:09:58;101324.06;;;14.36;59.84
28289;BME280;15558;50.874;6.964;2022-09-23T06:12:24;101320.41;;;14.35;59.96
28289;BME280;15558;50.874;6.964;2022-09-23T06:14:50;101315.69;;;14.31;60.46
28289;BME280;15558;50.874;6.964;2022-09-23T06:17:17;101309.63;;;14.37;60.27
28289;BME280;15558;50.874;6.964;2022-09-23T06:19:43;101316.66;;;14.39;60.36
28289;BME280;15558;50.874;6.964;2022-09-23T06:22:09;101313.94;;;14.48;59.47
28289;BME280;15558;50.874;6.964;2022-09-23T06:24:36;101313.44;;;14.59;59.46
28289;BME280;15558;50.874;6.964;2022-09-23T06:27:02;101322.22;;;14.58;58.93
28289;BME280;15558;50.874;6.964;2022-09-23T06:29:28;101307.50;;;14.61;58.85
28289;BME280;15558;50.874;6.964;2022-09-23T06:31:57;101306.75;;;14.69;59.44
28289;BME280;15558;50.874;6.964;2022-09-23T06:34:24;101310.50;;;14.64;59.92
28289;BME280;15558;50.874;6.964;2022-09-23T06:36:50;101306.31;;;14.75;59.35
28289;BME280;15558;50.874;6.964;2022-09-23T06:39:16;101309.38;;;14.78;59.42
28289;BME280;15558;50.874;6.964;2022-09-23T06:41:42;101300.16;;;14.86;58.62
28289;BME280;15558;50.874;6.964;2022-09-23T06:44:09;101308.53;;;14.91;58.66
28289;BME280;15558;50.874;6.964;2022-09-23T06:46:35;101300.50;;;14.98;58.32
28289;BME280;15558;50.874;6.964;2022-09-23T06:49:01;101304.16;;;14.99;57.94
28289;BME280;15558;50.874;6.964;2022-09-23T06:51:28;101306.25;;;15.07;57.85
28289;BME280;15558;50.874;6.964;2022-09-23T06:53:54;101304.16;;;14.99;57.57
28289;BME280;15558;50.874;6.964;2022-09-23T06:56:20;101317.63;;;15.02;57.78
28289;BME280;15558;50.874;6.964;2022-09-23T06:58:47;101314.19;;;15.05;57.76
28289;BME280;15558;50.874;6.964;2022-09-23T07:01:16;101317.75;;;14.97;58.40
28289;BME280;15558;50.874;6.964;2022-09-23T07:03:43;101316.59;;;15.11;57.68
28289;BME280;15558;50.874;6.964;2022-09-23T07:06:10;101319.88;;;15.31;58.01
28289;BME280;15558;50.874;6.964;2022-09-23T07:08:36;101315.47;;;15.25;58.05
28289;BME280;15558;50.874;6.964;2022-09-23T07:11:04;101319.94;;;15.40;58.15
28289;BME280;15558;50.874;6.964;2022-09-23T07:13:31;101323.69;;;15.48;57.51
28289;BME280;15558;50.874;6.964;2022-09-23T07:15:59;101311.81;;;15.60;57.35
28289;BME280;15558;50.874;6.964;2022-09-23T07:18:28;101313.06;;;15.67;57.00
28289;BME280;15558;50.874;6.964;2022-09-23T07:20:55;101315.72;;;15.85;56.55
28289;BME280;15558;50.874;6.964;2022-09-23T07:23:22;101312.81;;;15.99;56.72
28289;BME280;15558;50.874;6.964;2022-09-23T07:25:48;101313.91;;;16.11;56.29
28289;BME280;15558;50.874;6.964;2022-09-23T07:28:17;101307.09;;;16.34;55.98
28289;BME280;15558;50.874;6.964;2022-09-23T07:30:44;101306.88;;;16.52;55.97
28289;BME280;15558;50.874;6.964;2022-09-23T07:33:10;101309.81;;;16.69;55.07
28289;BME280;15558;50.874;6.964;2022-09-23T07:35:40;101313.22;;;16.87;54.77
28289;BME280;15558;50.874;6.964;2022-09-23T07:38:08;101309.13;;;17.02;54.07
28289;BME280;15558;50.874;6.964;2022-09-23T07:40:34;101313.66;;;17.03;54.36
28289;BME280;15558;50.874;6.964;2022-09-23T07:43:00;101313.41;;;16.91;54.36
28289;BME280;15558;50.874;6.964;2022-09-23T07:45:29;101307.66;;;17.13;54.52
28289;BME280;15558;50.874;6.964;2022-09-23T07:48:00;101312.59;;;17.46;53.26
28289;BME280;15558;50.874;6.964;2022-09-23T07:50:26;101309.63;;;17.51;52.95
28289;BME280;15558;50.874;6.964;2022-09-23T07:52:53;101316.31;;;17.63;53.13
28289;BME280;15558;50.874;6.964;2022-09-23T07:55:19;101307.47;;;17.73;53.04
28289;BME280;15558;50.874;6.964;2022-09-23T07:57:45;101312.63;;;17.79;52.37
28289;BME280;15558;50.874;6.964;2022-09-23T08:00:12;101316.66;;;17.87;52.18
28289;BME280;15558;50.874;6.964;2022-09-23T08:02:39;101317.16;;;17.89;52.22
28289;BME280;15558;50.874;6.964;2022-09-23T08:05:05;101315.84;;;17.86;52.99
28289;BME280;15558;50.874;6.964;2022-09-23T08:07:32;101308.47;;;17.93;51.71
28289;BME280;15558;50.874;6.964;2022-09-23T08:09:59;101305.63;;;17.93;52.80
28289;BME280;15558;50.874;6.964;2022-09-23T08:12:27;101310.19;;;18.11;52.08
28289;BME280;15558;50.874;6.964;2022-09-23T08:14:54;101309.34;;;18.19;51.89
28289;BME280;15558;50.874;6.964;2022-09-23T08:17:20;101315.81;;;18.36;51.17
28289;BME280;15558;50.874;6.964;2022-09-23T08:19:46;101306.97;;;18.38;52.15
28289;BME280;15558;50.874;6.964;2022-09-23T08:22:21;101300.94;;;18.48;51.14
28289;BME280;15558;50.874;6.964;2022-09-23T08:25:14;101304.41;;;18.53;51.05
28289;BME280;15558;50.874;6.964;2022-09-23T08:27:41;101305.56;;;18.61;51.16
28289;BME280;15558;50.874;6.964;2022-09-23T08:30:07;101294.50;;;18.67;51.06
28289;BME280;15558;50.874;6.964;2022-09-23T08:32:34;101299.19;;;18.63;51.54
28289;BME280;15558;50.874;6.964;2022-09-23T08:35:00;101299.53;;;18.62;51.87
28289;BME280;15558;50.874;6.964;2022-09-23T08:37:26;101296.97;;;18.77;50.96
28289;BME280;15558;50.874;6.964;2022-09-23T08:39:52;101293.59;;;18.84;50.44
28289;BME280;15558;50.874;6.964;2022-09-23T08:42:26;101290.09;;;18.78;50.40
28289;BME280;15558;50.874;6.964;2022-09-23T08:45:02;101283.53;;;18.86;51.23
28289;BME280;15558;50.874;6.964;2022-09-23T08:47:38;101274.56;;;18.76;50.85
28289;BME280;15558;50.874;6.964;2022-09-23T08:50:27;101284.94;;;18.72;50.94
28289;BME280;15558;50.874;6.964;2022-09-23T08:53:00;101290.44;;;18.85;50.54
28289;BME280;15558;50.874;6.964;2022-09-23T08:55:34;101284.41;;;18.78;51.14
28289;BME280;15558;50.874;6.964;2022-09-23T09:03:45;101278.75;;;19.15;51.39
28289;BME280;15558;50.874;6.964;2022-09-23T09:06:17;101275.78;;;19.32;51.25
28289;BME280;15558;50.874;6.964;2022-09-23T09:08:55;101276.72;;;19.44;50.40
28289;BME280;15558;50.874;6.964;2022-09-23T09:11:27;101275.34;;;19.50;49.58
28289;BME280;15558;50.874;6.964;2022-09-23T09:14:04;101276.31;;;19.54;49.44
28289;BME280;15558;50.874;6.964;2022-09-23T09:17:09;101270.91;;;19.61;49.93
28289;BME280;15558;50.874;6.964;2022-09-23T09:19:41;101271.88;;;19.65;49.61
28289;BME280;15558;50.874;6.964;2022-09-23T09:22:19;101266.22;;;19.85;49.33
28289;BME280;15558;50.874;6.964;2022-09-23T09:24:47;101265.16;;;19.90;49.12
28289;BME280;15558;50.874;6.964;2022-09-23T09:27:14;101266.00;;;19.90;49.32
28289;BME280;15558;50.874;6.964;2022-09-23T09:29:43;101270.03;;;20.09;49.19
28289;BME280;15558;50.874;6.964;2022-09-23T09:34:48;101267.78;;;20.15;47.55
28289;BME280;15558;50.874;6.964;2022-09-23T09:37:43;101258.53;;;20.18;47.25
28289;BME280;15558;50.874;6.964;2022-09-23T09:40:12;101261.28;;;20.26;47.59
28289;BME280;15558;50.874;6.964;2022-09-23T09:42:45;101258.75;;;20.45;47.00
28289;BME280;15558;50.874;6.964;2022-09-23T09:45:37;101255.00;;;20.65;45.74
28289;BME280;15558;50.874;6.964;2022-09-23T09:48:12;101253.97;;;20.69;46.14
28289;BME280;15558;50.874;6.964;2022-09-23T09:50:48;101239.09;;;20.64;44.63
28289;BME280;15558;50.874;6.964;2022-09-23T09:55:44;101229.34;;;20.76;44.68
28289;BME280;15558;50.874;6.964;2022-09-23T09:58:12;101241.38;;;20.82;44.77
28289;BME280;15558;50.874;6.964;2022-09-23T10:00:44;101232.91;;;20.85;45.48
28289;BME280;15558;50.874;6.964;2022-09-23T10:11:11;101232.56;;;20.87;45.07
28289;BME280;15558;50.874;6.964;2022-09-23T10:16:30;101245.06;;;20.94;44.00
28289;BME280;15558;50.874;6.964;2022-09-23T10:18:58;101235.56;;;21.02;44.41
28289;BME280;15558;50.874;6.964;2022-09-23T10:21:31;101239.22;;;21.14;44.23
28289;BME280;15558;50.874;6.964;2022-09-23T10:23:59;101237.66;;;21.29;44.43
28289;BME280;15558;50.874;6.964;2022-09-23T10:26:33;101238.91;;;21.40;44.86
28289;BME280;15558;50.874;6.964;2022-09-23T10:29:19;101233.16;;;21.28;44.48
28289;BME280;15558;50.874;6.964;2022-09-23T10:31:47;101234.81;;;21.52;43.40
28289;BME280;15558;50.874;6.964;2022-09-23T10:34:26;101227.34;;;21.48;44.05
28289;BME280;15558;50.874;6.964;2022-09-23T10:37:07;101222.66;;;21.55;44.13
28289;BME280;15558;50.874;6.964;2022-09-23T10:39:34;101231.69;;;21.69;43.46
28289;BME280;15558;50.874;6.964;2022-09-23T10:42:47;101215.16;;;21.63;43.81
28289;BME280;15558;50.874;6.964;2022-09-23T10:45:38;101214.84;;;21.41;43.33
28289;BME280;15558;50.874;6.964;2022-09-23T11:00:46;101206.13;;;21.88;42.50
28289;BME280;15558;50.874;6.964;2022-09-23T11:03:37;101206.09;;;22.00;41.45
28289;BME280;15558;50.874;6.964;2022-09-23T11:06:29;101201.66;;;22.02;42.58
28289;BME280;15558;50.874;6.964;2022-09-23T11:20:30;101189.41;;;22.44;40.64
28289;BME280;15558;50.874;6.964;2022-09-23T11:32:01;101177.97;;;22.44;41.07
28289;BME280;15558;50.874;6.964;2022-09-23T11:37:21;101172.44;;;22.51;41.82
28289;BME280;15558;50.874;6.964;2022-09-23T11:39:58;101179.44;;;22.38;41.39
28289;BME280;15558;50.874;6.964;2022-09-23T11:42:31;101179.72;;;22.49;41.54
28289;BME280;15558;50.874;6.964;2022-09-23T11:45:23;101162.19;;;22.50;40.67
28289;BME280;15558;50.874;6.964;2022-09-23T11:47:52;101164.50;;;22.60;39.72
28289;BME280;15558;50.874;6.964;2022-09-23T11:50:34;101164.41;;;22.56;39.78
28289;BME280;15558;50.874;6.964;2022-09-23T11:55:55;101155.72;;;22.53;40.60
28289;BME280;15558;50.874;6.964;2022-09-23T11:58:28;101152.03;;;22.52;40.86
28289;BME280;15558;50.874;6.964;2022-09-23T12:01:02;101147.53;;;22.52;40.02
28289;BME280;15558;50.874;6.964;2022-09-23T12:04:14;101146.38;;;22.41;40.80
28289;BME280;15558;50.874;6.964;2022-09-23T12:06:40;101142.91;;;22.47;39.61
28289;BME280;15558;50.874;6.964;2022-09-23T12:09:21;101145.31;;;22.45;40.31
28289;BME280;15558;50.874;6.964;2022-09-23T12:11:57;101142.00;;;22.43;38.63
28289;BME280;15558;50.874;6.964;2022-09-23T12:14:58;101130.16;;;22.45;38.89
28289;BME280;15558;50.874;6.964;2022-09-23T12:17:49;101132.00;;;22.37;39.74
28289;BME280;15558;50.874;6.964;2022-09-23T12:20:54;101132.84;;;22.38;39.03
28289;BME280;15558;50.874;6.964;2022-09-23T12:26:11;101127.59;;;22.40;41.74
28289;BME280;15558;50.874;6.964;2022-09-23T12:28:44;101124.34;;;22.41;43.71
28289;BME280;15558;50.874;6.964;2022-09-23T12:31:15;101120.28;;;22.42;42.56
28289;BME280;15558;50.874;6.964;2022-09-23T12:33:51;101124.06;;;22.46;41.62
28289;BME280;15558;50.874;6.964;2022-09-23T12:36:34;101122.59;;;22.52;40.37
28289;BME280;15558;50.874;6.964;2022-09-23T12:39:04;101117.81;;;22.56;39.66
28289;BME280;15558;50.874;6.964;2022-09-23T12:41:35;101111.63;;;22.54;44.30
28289;BME280;15558;50.874;6.964;2022-09-23T12:46:42;101114.56;;;22.57;42.74
28289;BME280;15558;50.874;6.964;2022-09-23T12:54:37;101113.25;;;22.55;41.42
28289;BME280;15558;50.874;6.964;2022-09-23T13:02:31;101104.03;;;22.61;42.86
28289;BME280;15558;50.874;6.964;2022-09-23T13:08:01;101097.22;;;22.51;39.71
28289;BME280;15558;50.874;6.964;2022-09-23T13:10:30;101104.16;;;22.50;42.59
28289;BME280;15558;50.874;6.964;2022-09-23T13:12:58;101094.19;;;22.44;41.43
28289;BME280;15558;50.874;6.964;2022-09-23T13:15:33;101099.78;;;22.40;44.27
28289;BME280;15558;50.874;6.964;2022-09-23T13:20:51;101094.91;;;22.25;43.65
28289;BME280;15558;50.874;6.964;2022-09-23T13:23:28;101087.53;;;22.24;41.29
28289;BME280;15558;50.874;6.964;2022-09-23T13:25:58;101098.06;;;22.20;42.39
28289;BME280;15558;50.874;6.964;2022-09-23T13:28:32;101099.53;;;22.15;43.40
28289;BME280;15558;50.874;6.964;2022-09-23T13:31:04;101091.63;;;22.12;44.55
28289;BME280;15558;50.874;6.964;2022-09-23T13:33:53;101102.16;;;22.08;43.25
28289;BME280;15558;50.874;6.964;2022-09-23T13:36:21;101098.56;;;22.11;41.64
28289;BME280;15558;50.874;6.964;2022-09-23T13:38:47;101098.16;;;21.97;45.50
28289;BME280;15558;50.874;6.964;2022-09-23T13:41:19;101098.63;;;21.99;45.09
28289;BME280;15558;50.874;6.964;2022-09-23T13:43:54;101093.47;;;22.04;45.97
28289;BME280;15558;50.874;6.964;2022-09-23T13:46:26;101085.16;;;21.99;46.55
28289;BME280;15558;50.874;6.964;2022-09-23T13:48:54;101084.78;;;22.01;46.20
28289;BME280;15558;50.874;6.964;2022-09-23T13:53:53;101083.16;;;22.00;46.70
28289;BME280;15558;50.874;6.964;2022-09-23T13:56:20;101085.53;;;21.98;48.29
28289;BME280;15558;50.874;6.964;2022-09-23T13:58:46;101084.31;;;21.99;44.36
28289;BME280;15558;50.874;6.964;2022-09-23T14:01:30;101074.34;;;21.93;49.17
28289;BME280;15558;50.874;6.964;2022-09-23T14:03:58;101075.69;;;21.95;47.30
28289;BME280;15558;50.874;6.964;2022-09-23T14:06:24;101076.56;;;21.84;46.21
28289;BME280;15558;50.874;6.964;2022-09-23T14:08:52;101070.84;;;21.84;46.17
28289;BME280;15558;50.874;6.964;2022-09-23T14:11:43;101066.81;;;21.85;46.41
28289;BME280;15558;50.874;6.964;2022-09-23T14:14:12;101063.56;;;21.86;46.39
28289;BME280;15558;50.874;6.964;2022-09-23T14:16:40;101055.84;;;21.87;49.21
28289;BME280;15558;50.874;6.964;2022-09-23T14:19:12;101058.22;;;21.85;47.89
28289;BME280;15558;50.874;6.964;2022-09-23T14:21:41;101052.97;;;21.87;48.08
28289;BME280;15558;50.874;6.964;2022-09-23T14:24:31;101055.09;;;21.90;48.17
28289;BME280;15558;50.874;6.964;2022-09-23T14:27:13;101052.97;;;21.87;48.33
28289;BME280;15558;50.874;6.964;2022-09-23T14:29:43;101048.44;;;21.86;48.24
28289;BME280;15558;50.874;6.964;2022-09-23T14:32:15;101051.88;;;21.91;47.85
28289;BME280;15558;50.874;6.964;2022-09-23T14:40:37;101047.25;;;21.87;49.79
28289;BME280;15558;50.874;6.964;2022-09-23T14:43:20;101045.47;;;21.82;50.31
28289;BME280;15558;50.874;6.964;2022-09-23T14:45:55;101047.16;;;21.83;51.79
28289;BME280;15558;50.874;6.964;2022-09-23T14:48:32;101037.19;;;21.78;52.41
28289;BME280;15558;50.874;6.964;2022-09-23T14:51:00;101039.69;;;21.79;50.90
28289;BME280;15558;50.874;6.964;2022-09-23T14:53:34;101031.81;;;21.76;50.67
28289;BME280;15558;50.874;6.964;2022-09-23T14:58:55;101035.25;;;21.66;52.68
28289;BME280;15558;50.874;6.964;2022-09-23T15:01:31;101027.50;;;21.67;52.81
28289;BME280;15558;50.874;6.964;2022-09-23T15:06:55;101023.34;;;21.64;53.36
28289;BME280;15558;50.874;6.964;2022-09-23T15:11:58;101014.50;;;21.69;50.31
28289;BME280;15558;50.874;6.964;2022-09-23T15:14:27;101024.06;;;21.61;51.02
28289;BME280;15558;50.874;6.964;2022-09-23T15:16:54;101015.31;;;21.54;51.37
28289;BME280;15558;50.874;6.964;2022-09-23T15:19:21;101013.53;;;21.50;53.52
28289;BME280;15558;50.874;6.964;2022-09-23T15:21:51;101020.72;;;21.44;54.09
28289;BME280;15558;50.874;6.964;2022-09-23T15:24:40;101017.50;;;21.46;54.01
28289;BME280;15558;50.874;6.964;2022-09-23T15:27:22;101024.13;;;21.49;53.22
28289;BME280;15558;50.874;6.964;2022-09-23T15:29:50;101024.13;;;21.49;52.99
28289;BME280;15558;50.874;6.964;2022-09-23T15:32:16;101015.56;;;21.49;55.06